createdAt,value
2022-11-06T00:02:05.994Z,100460.10
2022-11-06T00:04:48.886Z,100462.95
2022-11-06T00:07:18.705Z,100464.21
2022-11-06T00:10:00.965Z,100460.66
2022-11-06T00:12:44.517Z,100460.24
2022-11-06T00:15:27.453Z,100465.56
2022-11-06T00:17:56.753Z,100469.69
2022-11-06T00:20:39.068Z,100475.34
2022-11-06T00:23:21.491Z,100479.39
2022-11-06T00:25:56.300Z,100480.14
2022-11-06T00:28:25.611Z,100479.70
2022-11-06T00:31:10.850Z,100486.38
2022-11-06T00:33:55.315Z,100487.17
2022-11-06T00:36:26.517Z,100488.81
2022-11-06T00:38:56.874Z,100485.09
2022-11-06T00:41:27.130Z,100484.67
2022-11-06T00:44:10.845Z,100479.42
2022-11-06T00:46:40.475Z,100481.94
2022-11-06T00:49:09.581Z,100480.12
2022-11-06T00:51:41.676Z,100480.55
2022-11-06T00:54:12.976Z,100477.65
2022-11-06T00:56:43.021Z,100480.19
2022-11-06T00:59:14.651Z,100479.20
2022-11-06T01:01:45.235Z,100478.73
2022-11-06T01:04:28.108Z,100479.84
2022-11-06T01:07:11.038Z,100481.61
2022-11-06T01:09:39.796Z,100487.20
2022-11-06T01:12:22.113Z,100482.93
2022-11-06T01:14:50.964Z,100480.29
2022-11-06T01:17:19.922Z,100485.23
2022-11-06T01:19:49.104Z,100480.88
2022-11-06T01:22:31.825Z,100482.08
2022-11-06T01:25:14.510Z,100482.98
2022-11-06T01:27:43.367Z,100481.35
2022-11-06T01:30:13.231Z,100477.44
2022-11-06T01:32:42.440Z,100478.23
2022-11-06T01:35:11.373Z,100480.74
2022-11-06T01:37:40.608Z,100479.08
2022-11-06T01:40:10.163Z,100478.66
2022-11-06T01:42:42.543Z,100479.80
2022-11-06T01:45:30.255Z,100482.10
2022-11-06T01:47:59.766Z,100485.92
2022-11-06T01:50:45.453Z,100486.80
2022-11-06T01:53:14.983Z,100485.08
2022-11-06T01:55:48.017Z,100486.23
2022-11-06T01:58:20.536Z,100489.66
2022-11-06T02:01:04.458Z,100488.09
2022-11-06T02:03:55.642Z,100489.15
2022-11-06T02:06:25.227Z,100487.98
2022-11-06T02:08:55.491Z,100491.12
2022-11-06T02:11:24.807Z,100489.05
2022-11-06T02:14:10.794Z,100487.87
2022-11-06T02:17:14.389Z,100487.20
2022-11-06T02:20:02.643Z,100480.64
2022-11-06T02:23:09.927Z,100480.20
2022-11-06T02:26:16.902Z,100487.05
2022-11-06T02:29:20.327Z,100488.58
2022-11-06T02:31:55.151Z,100493.58
2022-11-06T02:34:27.986Z,100498.54
2022-11-06T02:37:18.826Z,100502.19
2022-11-06T02:39:51.314Z,100502.70
2022-11-06T02:42:22.846Z,100502.48
2022-11-06T02:44:56.028Z,100505.44
2022-11-06T02:47:30.472Z,100504.55
2022-11-06T02:50:11.665Z,100506.53
2022-11-06T02:52:52.327Z,100505.54
2022-11-06T02:55:45.046Z,100503.17
2022-11-06T02:58:20.050Z,100503.40
2022-11-06T03:01:15.153Z,100504.46
2022-11-06T03:03:52.275Z,100509.65
2022-11-06T03:06:48.679Z,100510.42
2022-11-06T03:09:26.289Z,100511.64
2022-11-06T03:12:12.303Z,100512.14
2022-11-06T03:14:58.064Z,100513.50
2022-11-06T03:17:47.242Z,100512.81
2022-11-06T03:20:56.065Z,100514.66
2022-11-06T03:23:56.013Z,100511.44
2022-11-06T03:26:34.266Z,100504.43
2022-11-06T03:29:28.327Z,100508.11
2022-11-06T03:32:04.113Z,100511.94
2022-11-06T03:34:39.978Z,100512.31
2022-11-06T03:37:22.045Z,100515.09
2022-11-06T03:40:11.973Z,100512.14
2022-11-06T03:42:43.427Z,100512.84
2022-11-06T03:45:20.505Z,100513.88
2022-11-06T03:48:09.979Z,100519.94
2022-11-06T03:50:51.726Z,100526.33
2022-11-06T03:53:30.197Z,100526.52
2022-11-06T03:56:08.101Z,100532.84
2022-11-06T03:58:41.297Z,100532.94
2022-11-06T04:01:12.369Z,100526.98
2022-11-06T04:04:29.385Z,100527.59
2022-11-06T04:07:16.502Z,100529.05
2022-11-06T04:10:10.597Z,100528.08
2022-11-06T04:13:01.990Z,100524.84
2022-11-06T04:15:35.852Z,100521.41
2022-11-06T04:18:20.132Z,100517.09
2022-11-06T04:21:30.428Z,100517.92
2022-11-06T04:24:24.500Z,100526.00
2022-11-06T04:27:31.451Z,100525.84
2022-11-06T04:30:11.316Z,100526.55
2022-11-06T04:33:27.045Z,100528.45
2022-11-06T04:36:17.112Z,100523.76
2022-11-06T04:38:58.686Z,100525.63
2022-11-06T04:41:34.869Z,100527.52
2022-11-06T04:44:14.661Z,100521.63
2022-11-06T04:46:49.911Z,100520.45
2022-11-06T04:49:20.745Z,100524.67
2022-11-06T04:51:50.931Z,100518.92
2022-11-06T04:54:35.126Z,100515.59
2022-11-06T04:57:17.470Z,100521.20
2022-11-06T04:59:59.948Z,100518.14
2022-11-06T05:02:29.960Z,100515.23
2022-11-06T05:05:12.459Z,100519.56
2022-11-06T05:07:41.827Z,100522.33
2022-11-06T05:10:24.064Z,100519.73
2022-11-06T05:13:07.003Z,100516.83
2022-11-06T05:15:49.682Z,100516.21
2022-11-06T05:18:18.466Z,100518.87
2022-11-06T05:20:47.093Z,100517.54
2022-11-06T05:23:16.524Z,100524.11
2022-11-06T05:25:46.218Z,100523.96
2022-11-06T05:28:28.526Z,100528.87
2022-11-06T05:31:11.379Z,100529.95
2022-11-06T05:33:40.478Z,100532.91
2022-11-06T05:36:22.983Z,100534.05
2022-11-06T05:39:05.691Z,100532.73
2022-11-06T05:41:47.995Z,100535.03
2022-11-06T05:44:30.697Z,100531.31
2022-11-06T05:46:59.522Z,100528.39
2022-11-06T05:49:28.296Z,100526.50
2022-11-06T05:52:10.780Z,100529.23
2022-11-06T05:54:39.836Z,100532.52
2022-11-06T05:57:22.573Z,100537.86
2022-11-06T05:59:51.512Z,100543.36
2022-11-06T06:02:20.560Z,100545.61
2022-11-06T06:04:49.606Z,100546.13
2022-11-06T06:07:32.254Z,100542.65
2022-11-06T06:10:15.346Z,100540.90
2022-11-06T06:12:44.388Z,100540.88
2022-11-06T06:15:15.773Z,100541.73
2022-11-06T06:17:45.771Z,100544.79
2022-11-06T06:20:14.627Z,100545.64
2022-11-06T06:22:43.991Z,100548.70
2022-11-06T06:25:22.442Z,100558.70
2022-11-06T06:28:06.210Z,100561.27
2022-11-06T06:30:48.698Z,100563.81
2022-11-06T06:33:17.298Z,100567.95
2022-11-06T06:35:46.313Z,100568.25
2022-11-06T06:38:28.943Z,100568.23
2022-11-06T06:41:03.071Z,100569.08
2022-11-06T06:43:49.590Z,100570.13
2022-11-06T06:46:31.888Z,100569.10
2022-11-06T06:49:00.829Z,100569.25
2022-11-06T06:51:43.127Z,100567.30
2022-11-06T06:54:12.252Z,100573.46
2022-11-06T06:56:41.541Z,100571.64
2022-11-06T06:59:10.437Z,100573.15
2022-11-06T07:01:39.748Z,100576.88
2022-11-06T07:04:10.531Z,100577.54
2022-11-06T07:06:39.747Z,100577.83
2022-11-06T07:09:08.549Z,100576.73
2022-11-06T07:11:51.880Z,100572.17
2022-11-06T07:14:34.594Z,100570.52
2022-11-06T07:17:17.202Z,100569.41
2022-11-06T07:19:46.217Z,100571.71
2022-11-06T07:22:15.104Z,100574.53
2022-11-06T07:24:57.583Z,100576.53
2022-11-06T07:27:27.194Z,100576.46
2022-11-06T07:29:55.851Z,100576.23
2022-11-06T07:32:24.935Z,100573.25
2022-11-06T07:34:54.107Z,100568.86
2022-11-06T07:37:37.865Z,100572.55
2022-11-06T07:40:07.906Z,100571.14
2022-11-06T07:42:42.280Z,100578.02
2022-11-06T07:45:16.268Z,100573.05
2022-11-06T07:47:44.860Z,100574.79
2022-11-06T07:50:27.882Z,100569.85
2022-11-06T07:52:57.128Z,100575.55
2022-11-06T07:55:42.409Z,100575.63
2022-11-06T07:58:12.069Z,100581.11
2022-11-06T08:00:57.151Z,100577.98
2022-11-06T08:03:30.560Z,100580.44
2022-11-06T08:06:03.491Z,100585.81
2022-11-06T08:08:46.273Z,100583.35
2022-11-06T08:11:15.425Z,100585.42
2022-11-06T08:13:44.764Z,100583.94
2022-11-06T08:16:15.162Z,100583.72
2022-11-06T08:18:57.904Z,100586.47
2022-11-06T08:21:27.216Z,100591.52
2022-11-06T08:23:56.399Z,100595.14
2022-11-06T08:26:26.261Z,100596.83
2022-11-06T08:28:55.130Z,100596.45
2022-11-06T08:31:37.338Z,100599.33
2022-11-06T08:34:07.328Z,100597.53
2022-11-06T08:36:52.690Z,100601.42
2022-11-06T08:39:21.827Z,100601.53
2022-11-06T08:41:50.820Z,100601.48
2022-11-06T08:44:33.066Z,100601.61
2022-11-06T08:47:01.832Z,100600.42
2022-11-06T08:49:30.542Z,100603.54
2022-11-06T08:51:59.859Z,100602.25
2022-11-06T08:54:42.175Z,100599.13
2022-11-06T08:57:11.493Z,100599.17
2022-11-06T08:59:40.671Z,100599.38
2022-11-06T09:02:14.361Z,100596.08
2022-11-06T09:04:56.680Z,100590.55
2022-11-06T09:07:25.998Z,100589.79
2022-11-06T09:09:54.731Z,100588.92
2022-11-06T09:12:23.774Z,100590.50
2022-11-06T09:14:53.180Z,100592.38
2022-11-06T09:17:35.464Z,100593.66
2022-11-06T09:20:04.955Z,100596.01
2022-11-06T09:22:33.531Z,100595.54
2022-11-06T09:25:16.387Z,100593.66
2022-11-06T09:27:59.896Z,100591.88
2022-11-06T09:30:31.698Z,100594.51
2022-11-06T09:33:03.143Z,100591.86
2022-11-06T09:35:34.291Z,100592.51
2022-11-06T09:40:53.169Z,100588.96
2022-11-06T09:43:50.367Z,100588.05
2022-11-06T09:46:32.824Z,100580.36
2022-11-06T09:49:08.982Z,100583.95
2022-11-06T09:52:14.201Z,100585.30
2022-11-06T09:55:05.218Z,100581.86
2022-11-06T09:57:40.344Z,100587.87
2022-11-06T10:00:23.994Z,100580.02
2022-11-06T10:02:55.102Z,100580.71
2022-11-06T10:05:31.578Z,100581.52
2022-11-06T10:08:05.757Z,100583.22
2022-11-06T10:10:49.889Z,100579.91
2022-11-06T10:13:28.342Z,100579.90
2022-11-06T10:16:25.877Z,100576.67
2022-11-06T10:18:59.894Z,100573.62
2022-11-06T10:21:54.823Z,100569.70
2022-11-06T10:24:44.470Z,100566.68
2022-11-06T10:27:28.793Z,100567.98
2022-11-06T10:30:06.827Z,100566.77
2022-11-06T10:33:13.377Z,100559.96
2022-11-06T10:36:04.214Z,100567.96
2022-11-06T10:38:50.899Z,100569.10
2022-11-06T10:41:24.909Z,100566.61
2022-11-06T10:44:03.496Z,100566.20
2022-11-06T10:46:36.813Z,100567.56
2022-11-06T10:49:22.720Z,100569.12
2022-11-06T10:52:10.475Z,100568.02
2022-11-06T10:59:00.186Z,100561.00
2022-11-06T11:01:29.331Z,100558.48
2022-11-06T11:03:58.628Z,100558.63
2022-11-06T11:06:27.964Z,100560.44
2022-11-06T11:08:56.869Z,100559.06
2022-11-06T11:11:50.386Z,100551.67
2022-11-06T11:14:32.753Z,100547.33
2022-11-06T11:17:21.419Z,100542.14
2022-11-06T11:19:50.213Z,100535.84
2022-11-06T11:22:21.608Z,100534.38
2022-11-06T11:25:24.815Z,100526.77
2022-11-06T11:27:53.575Z,100522.33
2022-11-06T11:30:26.691Z,100522.39
2022-11-06T11:32:57.967Z,100522.69
2022-11-06T11:35:29.599Z,100516.31
2022-11-06T11:38:15.533Z,100516.23
2022-11-06T11:40:45.413Z,100511.60
2022-11-06T11:43:30.689Z,100510.95
2022-11-06T11:46:04.208Z,100511.83
2022-11-06T11:48:56.515Z,100507.23
2022-11-06T11:51:43.809Z,100501.27
2022-11-06T11:54:29.704Z,100497.17
2022-11-06T11:57:25.425Z,100493.61
2022-11-06T12:00:00.926Z,100486.10
2022-11-06T12:02:51.871Z,100485.05
2022-11-06T12:05:32.273Z,100480.88
2022-11-06T12:08:24.614Z,100479.86
2022-11-06T12:11:08.056Z,100480.11
2022-11-06T12:13:37.095Z,100476.72
2022-11-06T12:16:19.493Z,100470.75
2022-11-06T12:19:03.610Z,100469.48
2022-11-06T12:21:40.778Z,100469.48
2022-11-06T12:24:38.656Z,100466.23
2022-11-06T12:27:24.750Z,100459.30
2022-11-06T12:30:12.291Z,100458.86
2022-11-06T12:33:00.003Z,100456.39
2022-11-06T12:35:37.692Z,100450.80
2022-11-06T12:38:40.540Z,100449.17
2022-11-06T12:41:20.227Z,100454.01
2022-11-06T12:44:03.262Z,100455.83
2022-11-06T12:47:01.450Z,100456.12
2022-11-06T12:50:22.153Z,100457.52
2022-11-06T12:53:44.494Z,100446.75
2022-11-06T12:56:26.003Z,100441.15
2022-11-06T12:59:40.240Z,100440.04
2022-11-06T13:02:48.381Z,100441.05
2022-11-06T13:05:45.179Z,100441.13
2022-11-06T13:08:26.786Z,100440.39
2022-11-06T13:11:14.859Z,100435.42
2022-11-06T13:14:25.515Z,100427.42
2022-11-06T13:17:12.907Z,100431.89
2022-11-06T13:19:48.172Z,100433.73
2022-11-06T13:22:30.041Z,100428.92
2022-11-06T13:25:18.075Z,100433.16
2022-11-06T13:28:17.089Z,100429.34
2022-11-06T13:30:47.990Z,100426.50
2022-11-06T13:33:28.842Z,100424.42
2022-11-06T13:36:11.931Z,100427.86
2022-11-06T13:38:48.007Z,100431.66
2022-11-06T13:41:23.729Z,100430.70
2022-11-06T13:44:17.304Z,100426.05
2022-11-06T13:46:50.217Z,100425.23
2022-11-06T13:49:47.923Z,100421.30
2022-11-06T13:52:26.500Z,100420.08
2022-11-06T13:55:37.998Z,100420.95
2022-11-06T13:58:28.916Z,100426.16
2022-11-06T14:01:16.389Z,100432.02
2022-11-06T14:03:57.592Z,100428.79
2022-11-06T14:09:21.552Z,100417.19
2022-11-06T14:11:57.752Z,100414.45
2022-11-06T14:14:30.798Z,100418.01
2022-11-06T14:17:21.511Z,100419.91
2022-11-06T14:19:51.362Z,100424.19
2022-11-06T14:22:28.851Z,100420.42
2022-11-06T14:25:02.043Z,100419.30
2022-11-06T14:27:31.670Z,100421.17
2022-11-06T14:31:10.503Z,100417.55
2022-11-06T14:33:50.044Z,100414.78
2022-11-06T14:36:25.126Z,100417.61
2022-11-06T14:39:13.813Z,100416.39
2022-11-06T14:41:57.324Z,100415.95
2022-11-06T14:44:33.597Z,100416.11
2022-11-06T14:47:06.029Z,100417.80
2022-11-06T14:49:53.184Z,100421.65
2022-11-06T14:52:24.916Z,100422.02
2022-11-06T14:55:07.900Z,100430.15
2022-11-06T14:57:36.302Z,100435.20
2022-11-06T15:00:49.572Z,100434.70
2022-11-06T15:04:00.872Z,100434.45
2022-11-06T15:06:30.062Z,100435.48
2022-11-06T15:09:24.687Z,100432.85
2022-11-06T15:11:56.853Z,100431.48
2022-11-06T15:14:25.933Z,100434.59
2022-11-06T15:17:11.216Z,100426.77
2022-11-06T15:20:21.895Z,100431.77
2022-11-06T15:23:14.217Z,100431.56
2022-11-06T15:26:22.945Z,100439.75
2022-11-06T15:29:01.149Z,100438.33
2022-11-06T15:31:47.782Z,100440.48
2022-11-06T15:34:23.011Z,100434.27
2022-11-06T15:37:30.467Z,100435.00
2022-11-06T15:40:01.511Z,100436.49
2022-11-06T15:42:35.890Z,100438.65
2022-11-06T15:45:23.173Z,100439.48
2022-11-06T15:48:17.345Z,100439.84
2022-11-06T15:50:46.349Z,100446.81
2022-11-06T15:53:15.607Z,100446.20
2022-11-06T15:55:57.066Z,100440.55
2022-11-06T15:58:34.842Z,100438.71
2022-11-06T16:01:07.402Z,100437.95
2022-11-06T16:03:53.845Z,100432.34
2022-11-06T16:06:22.626Z,100430.46
2022-11-06T16:08:52.028Z,100429.95
2022-11-06T16:11:21.836Z,100429.48
2022-11-06T16:13:50.935Z,100425.48
2022-11-06T16:16:36.905Z,100430.48
2022-11-06T16:19:35.482Z,100435.38
2022-11-06T16:22:13.208Z,100433.91
2022-11-06T16:25:18.015Z,100438.02
2022-11-06T16:27:47.225Z,100437.96
2022-11-06T16:30:25.299Z,100441.46
2022-11-06T16:33:24.230Z,100449.30
2022-11-06T16:36:05.865Z,100443.62
2022-11-06T16:38:48.208Z,100439.69
2022-11-06T16:41:37.910Z,100444.75
2022-11-06T16:44:30.720Z,100444.30
2022-11-06T16:47:16.946Z,100441.08
2022-11-06T16:49:59.917Z,100437.12
2022-11-06T16:52:42.803Z,100431.10
2022-11-06T16:55:16.774Z,100423.89
2022-11-06T16:57:53.374Z,100423.30
2022-11-06T17:00:21.974Z,100417.54
2022-11-06T17:03:06.727Z,100418.40
2022-11-06T17:05:55.982Z,100417.95
2022-11-06T17:08:41.275Z,100415.77
2022-11-06T17:11:13.187Z,100417.58
2022-11-06T17:13:44.630Z,100414.57
2022-11-06T17:16:16.620Z,100418.39
2022-11-06T17:18:59.352Z,100418.58
2022-11-06T17:21:41.671Z,100410.99
2022-11-06T17:24:35.282Z,100408.45
2022-11-06T17:27:00.042Z,100406.67
2022-11-06T17:29:42.468Z,100407.04
2022-11-06T17:32:11.514Z,100407.17
2022-11-06T17:34:40.355Z,100414.92
2022-11-06T17:37:11.671Z,100413.80
2022-11-06T17:39:54.023Z,100417.39
2022-11-06T17:42:23.269Z,100417.71
2022-11-06T17:44:52.123Z,100416.65
2022-11-06T17:47:21.483Z,100413.30
2022-11-06T17:49:50.792Z,100410.84
2022-11-06T17:52:21.593Z,100411.16
2022-11-06T17:54:50.692Z,100410.92
2022-11-06T17:57:33.343Z,100413.08
2022-11-06T18:00:16.213Z,100417.79
2022-11-06T18:03:00.937Z,100413.48
2022-11-06T18:05:31.426Z,100410.77
2022-11-06T18:08:00.819Z,100407.57
2022-11-06T18:10:30.819Z,100409.04
2022-11-06T18:13:00.121Z,100406.05
2022-11-06T18:15:28.979Z,100410.13
2022-11-06T18:17:58.428Z,100411.55
2022-11-06T18:20:46.204Z,100408.31
2022-11-06T18:23:15.465Z,100402.13
2022-11-06T18:25:58.945Z,100392.80
2022-11-06T18:28:41.758Z,100393.02
2022-11-06T18:31:10.463Z,100390.82
2022-11-06T18:33:40.104Z,100391.54
2022-11-06T18:36:22.449Z,100386.52
2022-11-06T18:38:51.366Z,100378.23
2022-11-06T18:41:22.922Z,100371.81
2022-11-06T18:44:05.799Z,100363.88
2022-11-06T18:46:48.949Z,100363.63
2022-11-06T18:49:18.222Z,100362.00
2022-11-06T18:52:01.141Z,100361.02
2022-11-06T18:54:30.421Z,100361.13
2022-11-06T18:56:59.304Z,100360.20
2022-11-06T18:59:41.946Z,100365.61
2022-11-06T19:02:10.788Z,100365.00
2022-11-06T19:04:39.732Z,100367.46
2022-11-06T19:07:09.257Z,100366.66
2022-11-06T19:09:38.531Z,100366.17
2022-11-06T19:12:08.155Z,100368.48
2022-11-06T19:14:37.135Z,100364.23
2022-11-06T19:17:06.064Z,100367.45
2022-11-06T19:20:04.209Z,100368.58
2022-11-06T19:22:41.609Z,100368.69
2022-11-06T19:25:10.354Z,100367.40
2022-11-06T19:27:39.325Z,100366.41
2022-11-06T19:30:09.651Z,100362.48
2022-11-06T19:32:39.308Z,100361.71
2022-11-06T19:35:08.934Z,100361.06
2022-11-06T19:37:38.765Z,100359.41
2022-11-06T19:40:08.465Z,100356.72
2022-11-06T19:42:38.040Z,100352.78
2022-11-06T19:45:08.724Z,100347.08
2022-11-06T19:47:37.834Z,100343.78
2022-11-06T19:50:08.099Z,100335.15
2022-11-06T19:52:44.166Z,100336.23
2022-11-06T19:55:28.518Z,100342.52
2022-11-06T19:58:00.116Z,100339.84
2022-11-06T20:00:30.922Z,100339.52
2022-11-06T20:02:59.977Z,100337.82
2022-11-06T20:05:28.710Z,100338.02
2022-11-06T20:07:57.492Z,100336.65
2022-11-06T20:10:26.688Z,100338.71
2022-11-06T20:12:55.421Z,100341.16
2022-11-06T20:15:24.351Z,100343.95
2022-11-06T20:17:53.345Z,100348.65
2022-11-06T20:20:22.941Z,100352.14
2022-11-06T20:22:52.483Z,100359.31
2022-11-06T20:25:21.252Z,100362.61
2022-11-06T20:27:50.342Z,100367.14
2022-11-06T20:30:19.908Z,100367.20
2022-11-06T20:32:48.793Z,100367.59
2022-11-06T20:35:19.895Z,100369.19
2022-11-06T20:37:48.979Z,100370.06
2022-11-06T20:40:17.733Z,100369.84
2022-11-06T20:42:46.831Z,100371.89
2022-11-06T20:45:29.251Z,100370.95
2022-11-06T20:47:58.437Z,100372.96
2022-11-06T20:50:27.421Z,100374.45
2022-11-06T20:52:56.391Z,100378.20
2022-11-06T20:55:25.158Z,100383.67
2022-11-06T20:57:54.066Z,100386.81
2022-11-06T21:00:23.248Z,100387.90
2022-11-06T21:03:05.674Z,100390.39
2022-11-06T21:05:48.179Z,100393.45
2022-11-06T21:08:16.865Z,100392.89
2022-11-06T21:11:05.789Z,100394.88
2022-11-06T21:13:36.045Z,100391.42
2022-11-06T21:16:08.212Z,100390.30
2022-11-06T21:18:39.081Z,100383.62
2022-11-06T21:21:12.287Z,100376.86
2022-11-06T21:23:42.550Z,100378.58
2022-11-06T21:26:17.802Z,100372.35
2022-11-06T21:28:47.060Z,100370.64
2022-11-06T21:31:19.401Z,100370.51
2022-11-06T21:33:50.910Z,100365.14
2022-11-06T21:36:23.794Z,100365.40
2022-11-06T21:38:54.630Z,100359.71
2022-11-06T21:41:26.038Z,100356.80
2022-11-06T21:43:54.952Z,100350.40
2022-11-06T21:46:24.267Z,100352.64
2022-11-06T21:48:53.892Z,100347.96
2022-11-06T21:51:25.293Z,100346.20
2022-11-06T21:54:13.585Z,100346.85
2022-11-06T21:56:43.963Z,100343.39
2022-11-06T21:59:16.048Z,100343.77
2022-11-06T22:01:45.829Z,100345.69
2022-11-06T22:04:15.434Z,100345.05
2022-11-06T22:06:44.595Z,100341.46
2022-11-06T22:09:27.058Z,100337.89
2022-11-06T22:12:09.355Z,100334.09
2022-11-06T22:15:18.579Z,100339.30
2022-11-06T22:17:47.727Z,100335.65
2022-11-06T22:20:30.015Z,100329.59
2022-11-06T22:22:58.733Z,100323.73
2022-11-06T22:25:41.032Z,100321.45
2022-11-06T22:28:09.803Z,100320.06
2022-11-06T22:30:38.574Z,100321.30
2022-11-06T22:33:20.867Z,100310.46
2022-11-06T22:35:49.681Z,100301.18
2022-11-06T22:38:33.093Z,100295.70
2022-11-06T22:41:18.537Z,100284.63
2022-11-06T22:43:47.417Z,100279.64
2022-11-06T22:46:19.265Z,100277.55
2022-11-06T22:48:49.299Z,100269.55
2022-11-06T22:51:33.422Z,100257.69
2022-11-06T22:54:03.923Z,100255.58
2022-11-06T22:56:46.325Z,100252.94
2022-11-06T22:59:15.569Z,100251.17
2022-11-06T23:01:58.428Z,100253.91
2022-11-06T23:04:27.921Z,100250.76
2022-11-06T23:07:10.838Z,100251.08
2022-11-06T23:09:53.075Z,100246.21
2022-11-06T23:12:21.866Z,100243.05
2022-11-06T23:15:05.263Z,100241.44
2022-11-06T23:17:36.254Z,100242.05
2022-11-06T23:20:20.309Z,100242.88
2022-11-06T23:23:04.382Z,100241.80
2022-11-06T23:25:47.244Z,100236.61
2022-11-06T23:28:16.009Z,100231.73
2022-11-06T23:31:05.992Z,100225.76
2022-11-06T23:33:48.412Z,100230.90
2022-11-06T23:36:30.779Z,100230.61
2022-11-06T23:39:13.506Z,100225.85
2022-11-06T23:41:46.352Z,100230.74
2022-11-06T23:44:39.462Z,100235.52
2022-11-06T23:47:21.923Z,100235.42
2022-11-06T23:49:51.729Z,100239.06
2022-11-06T23:52:21.361Z,100241.81
2022-11-06T23:54:50.856Z,100244.41
2022-11-06T23:57:19.935Z,100251.23
